Time;durP1;ratioP1;P1;durP2;ratioP2;P2;SDS_P1;SDS_P2;PMS_P1;PMS_P2;Temp;Humidity;BMP_temperature;BMP_pressure;BME280_temperature;BME280_humidity;BME280_pressure;Samples;Min_cycle;Max_cycle;Signal;HPM_P1;HPM_P2
2023/08/28 00:00:57;;;;;;;6.47;2.83;;;;;;;;;;4994381;28;20197;-71
2023/08/28 00:03:22;;;;;;;3.22;2.35;;;;;;;;;;4995963;28;20207;-71
2023/08/28 00:05:48;;;;;;;4.30;2.40;;;;;;;;;;4996521;28;20194;-71
2023/08/28 00:08:13;;;;;;;2.67;2.28;;;;;;;;;;4999339;28;20264;-71
2023/08/28 00:10:39;;;;;;;3.58;2.30;;;;;;;;;;4994403;28;20187;-70
2023/08/28 00:13:04;;;;;;;4.82;2.58;;;;;;;;;;5010569;22;21288;-67
2023/08/28 00:15:30;;;;;;;3.42;2.63;;;;;;;;;;5016378;28;20352;-67
2023/08/28 00:17:55;;;;;;;3.85;2.40;;;;;;;;;;5016457;28;20205;-66
2023/08/28 00:20:20;;;;;;;4.22;2.50;;;;;;;;;;5017256;28;20201;-66
2023/08/28 00:22:45;;;;;;;4.20;2.80;;;;;;;;;;5016523;28;20205;-66
2023/08/28 00:25:11;;;;;;;3.35;2.90;;;;;;;;;;4994674;28;20198;-66
2023/08/28 00:27:36;;;;;;;3.38;2.95;;;;;;;;;;4996721;28;20213;-67
2023/08/28 00:30:03;;;;;;;4.90;3.22;;;;;;;;;;4997657;28;21024;-66
2023/08/28 00:32:28;;;;;;;3.88;3.50;;;;;;;;;;4999270;28;21060;-66
2023/08/28 00:34:54;;;;;;;6.13;3.47;;;;;;;;;;4998603;28;21147;-66
2023/08/28 00:37:19;;;;;;;6.30;3.70;;;;;;;;;;4996633;28;20241;-66
2023/08/28 00:39:44;;;;;;;5.10;3.33;;;;;;;;;;4998360;28;20186;-66
2023/08/28 00:42:09;;;;;;;5.35;3.70;;;;;;;;;;4998924;28;20211;-65
2023/08/28 00:44:34;;;;;;;5.57;3.42;;;;;;;;;;4998303;28;20681;-66
2023/08/28 00:47:00;;;;;;;6.90;3.47;;;;;;;;;;4996733;28;20301;-67
2023/08/28 00:49:26;;;;;;;5.97;3.80;;;;;;;;;;4998220;28;20214;-67
2023/08/28 00:51:52;;;;;;;6.32;3.60;;;;;;;;;;4998317;28;21092;-67
2023/08/28 00:54:17;;;;;;;4.10;3.67;;;;;;;;;;4997137;28;20205;-66
2023/08/28 00:56:42;;;;;;;9.38;3.25;;;;;;;;;;4995700;28;20245;-67
2023/08/28 00:59:08;;;;;;;6.30;2.90;;;;;;;;;;4997280;28;20699;-67
2023/08/28 01:01:33;;;;;;;6.32;3.63;;;;;;;;;;4996101;28;20695;-67
2023/08/28 01:03:58;;;;;;;3.90;3.00;;;;;;;;;;4996939;28;20326;-67
2023/08/28 01:06:26;;;;;;;4.65;3.63;;;;;;;;;;4993101;28;20218;-67
2023/08/28 01:08:54;;;;;;;3.92;2.65;;;;;;;;;;4995694;28;20203;-67
2023/08/28 01:11:27;;;;;;;3.95;2.88;;;;;;;;;;4995519;28;20194;-66
2023/08/28 01:13:59;;;;;;;6.30;3.63;;;;;;;;;;4996047;28;20222;-67
2023/08/28 01:16:26;;;;;;;6.95;3.85;;;;;;;;;;4995418;28;20214;-67
2023/08/28 01:18:52;;;;;;;5.35;3.47;;;;;;;;;;4998307;28;20368;-68
2023/08/28 01:21:17;;;;;;;5.38;3.55;;;;;;;;;;4996653;28;20302;-66
2023/08/28 01:23:46;;;;;;;7.45;3.50;;;;;;;;;;4996845;28;20222;-66
2023/08/28 01:26:11;;;;;;;3.08;2.63;;;;;;;;;;4994341;28;20278;-67
2023/08/28 01:28:36;;;;;;;4.80;2.90;;;;;;;;;;4997637;28;20599;-66
2023/08/28 01:31:04;;;;;;;5.70;3.00;;;;;;;;;;4996795;28;20825;-66
2023/08/28 01:33:30;;;;;;;3.55;3.10;;;;;;;;;;4998360;28;20681;-67
2023/08/28 01:36:02;;;;;;;4.63;3.00;;;;;;;;;;4994577;28;20187;-66
2023/08/28 01:38:30;;;;;;;4.10;2.67;;;;;;;;;;4997311;28;20179;-66
2023/08/28 01:40:58;;;;;;;5.75;2.85;;;;;;;;;;4995275;28;20430;-67
2023/08/28 01:43:24;;;;;;;6.10;3.08;;;;;;;;;;4996195;28;20244;-66
2023/08/28 01:45:50;;;;;;;5.63;3.33;;;;;;;;;;4993641;28;20599;-66
2023/08/28 01:48:15;;;;;;;3.03;2.45;;;;;;;;;;4996281;28;20222;-69
2023/08/28 01:50:41;;;;;;;4.07;2.80;;;;;;;;;;4997542;28;20218;-66
2023/08/28 01:53:06;;;;;;;6.03;2.85;;;;;;;;;;4995746;28;20210;-66
2023/08/28 01:55:50;;;;;;;5.65;3.00;;;;;;;;;;4996846;28;20218;-66
2023/08/28 01:58:15;;;;;;;3.85;3.28;;;;;;;;;;4995216;28;20274;-65
2023/08/28 02:00:40;;;;;;;5.53;3.15;;;;;;;;;;4997473;28;20267;-66
2023/08/28 02:03:06;;;;;;;4.40;3.00;;;;;;;;;;4996785;28;20198;-66
2023/08/28 02:05:31;;;;;;;4.18;3.30;;;;;;;;;;4995573;28;20577;-66
2023/08/28 02:07:57;;;;;;;4.70;2.65;;;;;;;;;;4993573;28;20211;-67
2023/08/28 02:10:22;;;;;;;4.45;2.50;;;;;;;;;;4998342;28;20532;-66
2023/08/28 02:12:47;;;;;;;5.35;2.60;;;;;;;;;;4996344;28;20653;-66
2023/08/28 02:15:12;;;;;;;5.50;2.92;;;;;;;;;;4994371;28;21653;-66
2023/08/28 02:17:37;;;;;;;3.85;3.08;;;;;;;;;;4995679;28;20314;-66
2023/08/28 02:20:03;;;;;;;8.65;4.80;;;;;;;;;;4994842;28;20201;-66
2023/08/28 02:22:28;;;;;;;3.47;2.80;;;;;;;;;;4998025;28;20252;-65
2023/08/28 02:24:53;;;;;;;6.18;2.95;;;;;;;;;;5000632;28;20590;-67
2023/08/28 02:27:18;;;;;;;5.68;3.20;;;;;;;;;;4999655;28;20657;-67
2023/08/28 02:29:44;;;;;;;7.30;3.53;;;;;;;;;;5000717;28;20241;-67
2023/08/28 02:32:09;;;;;;;3.22;2.72;;;;;;;;;;5001389;28;20273;-68
2023/08/28 02:34:34;;;;;;;3.72;3.15;;;;;;;;;;5001291;28;20424;-66
2023/08/28 02:36:59;;;;;;;6.93;3.65;;;;;;;;;;5000969;28;20232;-67
2023/08/28 02:39:24;;;;;;;3.55;3.13;;;;;;;;;;4999672;28;20265;-66
2023/08/28 02:41:50;;;;;;;3.85;2.47;;;;;;;;;;4999300;28;20237;-67
2023/08/28 02:44:15;;;;;;;4.75;2.67;;;;;;;;;;5000906;28;20198;-65
2023/08/28 02:46:40;;;;;;;5.18;3.38;;;;;;;;;;5000194;28;20186;-66
2023/08/28 02:49:05;;;;;;;5.05;2.90;;;;;;;;;;4997190;28;20207;-68
2023/08/28 02:51:31;;;;;;;3.90;3.00;;;;;;;;;;4999704;28;20885;-65
2023/08/28 02:53:56;;;;;;;5.57;3.78;;;;;;;;;;4998405;28;20687;-65
2023/08/28 02:56:22;;;;;;;4.28;2.85;;;;;;;;;;4998734;28;21000;-65
2023/08/28 02:58:47;;;;;;;5.22;3.38;;;;;;;;;;4997967;28;20237;-65
2023/08/28 03:01:12;;;;;;;4.47;3.40;;;;;;;;;;4999639;28;20243;-66
2023/08/28 03:03:38;;;;;;;4.20;2.70;;;;;;;;;;4999741;28;20696;-67
2023/08/28 03:06:03;;;;;;;6.55;3.67;;;;;;;;;;4997377;28;20190;-65
2023/08/28 03:08:29;;;;;;;3.33;3.00;;;;;;;;;;4995271;28;20238;-66
2023/08/28 03:10:54;;;;;;;3.85;3.08;;;;;;;;;;4999877;28;20616;-66
2023/08/28 03:13:19;;;;;;;4.00;2.67;;;;;;;;;;4999184;28;20210;-66
2023/08/28 03:15:44;;;;;;;4.30;3.35;;;;;;;;;;4999927;28;20244;-66
2023/08/28 03:18:09;;;;;;;6.85;3.65;;;;;;;;;;4997509;28;20187;-67
2023/08/28 03:20:35;;;;;;;4.47;2.90;;;;;;;;;;5000697;28;20191;-67
2023/08/28 03:23:02;;;;;;;3.85;3.33;;;;;;;;;;4998386;28;20219;-67
2023/08/28 03:25:27;;;;;;;8.23;3.42;;;;;;;;;;4999873;28;20191;-66
2023/08/28 03:27:53;;;;;;;4.85;3.65;;;;;;;;;;4996522;28;20219;-66
2023/08/28 03:30:18;;;;;;;4.28;3.78;;;;;;;;;;4995429;28;20191;-67
2023/08/28 03:32:43;;;;;;;5.25;2.60;;;;;;;;;;4998683;28;20182;-67
2023/08/28 03:35:09;;;;;;;4.45;3.13;;;;;;;;;;4999454;28;20188;-67
2023/08/28 03:37:34;;;;;;;2.97;2.67;;;;;;;;;;4997635;28;20183;-66
2023/08/28 03:39:59;;;;;;;4.22;2.75;;;;;;;;;;4998426;28;21068;-67
2023/08/28 03:42:24;;;;;;;3.50;2.92;;;;;;;;;;4999546;28;20687;-67
2023/08/28 03:44:49;;;;;;;4.63;4.05;;;;;;;;;;4999950;28;20226;-67
2023/08/28 03:47:15;;;;;;;5.63;4.00;;;;;;;;;;4999340;28;20269;-67
2023/08/28 03:49:40;;;;;;;4.97;4.18;;;;;;;;;;5000723;28;20210;-67
2023/08/28 03:52:05;;;;;;;5.20;4.13;;;;;;;;;;4999108;28;20182;-67
2023/08/28 03:54:30;;;;;;;5.75;3.80;;;;;;;;;;4998528;28;20459;-67
2023/08/28 03:56:55;;;;;;;4.30;3.58;;;;;;;;;;4996665;28;20771;-67
2023/08/28 03:59:21;;;;;;;11.02;4.68;;;;;;;;;;4998173;28;20198;-67
2023/08/28 04:01:47;;;;;;;6.80;4.47;;;;;;;;;;4999085;28;20195;-67
2023/08/28 04:04:12;;;;;;;7.80;4.80;;;;;;;;;;4997192;28;20235;-65
2023/08/28 04:06:37;;;;;;;5.57;4.05;;;;;;;;;;4996234;28;20194;-67
2023/08/28 04:09:02;;;;;;;4.32;3.40;;;;;;;;;;4997080;28;20574;-67
2023/08/28 04:11:28;;;;;;;4.93;3.92;;;;;;;;;;4998024;28;20202;-67
2023/08/28 04:13:53;;;;;;;4.32;3.65;;;;;;;;;;4998606;28;20223;-67
2023/08/28 04:16:18;;;;;;;7.57;3.78;;;;;;;;;;4996362;28;20278;-67
2023/08/28 04:18:43;;;;;;;5.35;3.78;;;;;;;;;;4998675;28;20213;-67
2023/08/28 04:21:09;;;;;;;5.40;4.23;;;;;;;;;;4997932;28;20183;-67
2023/08/28 04:23:34;;;;;;;5.50;4.15;;;;;;;;;;4997175;28;20253;-67
2023/08/28 04:26:00;;;;;;;5.88;3.92;;;;;;;;;;4996120;28;20325;-67
2023/08/28 04:28:25;;;;;;;10.40;4.80;;;;;;;;;;4996206;28;20231;-67
2023/08/28 04:30:50;;;;;;;6.40;3.72;;;;;;;;;;4998358;28;20795;-68
2023/08/28 04:33:15;;;;;;;5.25;4.22;;;;;;;;;;4997246;28;20257;-67
2023/08/28 04:35:41;;;;;;;5.32;3.97;;;;;;;;;;4998608;28;20270;-67
2023/08/28 04:38:06;;;;;;;5.22;4.10;;;;;;;;;;4996258;28;20194;-66
2023/08/28 04:40:31;;;;;;;4.72;3.75;;;;;;;;;;4999006;28;21106;-67
2023/08/28 04:42:56;;;;;;;5.00;3.45;;;;;;;;;;4996747;28;20345;-67
2023/08/28 04:45:22;;;;;;;6.63;4.78;;;;;;;;;;4998150;28;20660;-67
2023/08/28 04:47:47;;;;;;;6.43;4.93;;;;;;;;;;4994096;28;20198;-66
2023/08/28 04:50:12;;;;;;;6.38;5.38;;;;;;;;;;4997110;28;20214;-67
2023/08/28 04:52:37;;;;;;;5.20;4.40;;;;;;;;;;4998328;28;20194;-67
2023/08/28 04:55:03;;;;;;;6.18;4.15;;;;;;;;;;4998008;28;20243;-66
2023/08/28 04:57:28;;;;;;;6.05;3.92;;;;;;;;;;4997925;28;20179;-67
2023/08/28 04:59:53;;;;;;;5.22;4.15;;;;;;;;;;4997718;28;20277;-66
2023/08/28 05:02:19;;;;;;;5.68;4.07;;;;;;;;;;4999174;28;20201;-67
2023/08/28 05:04:44;;;;;;;7.93;4.90;;;;;;;;;;4997004;28;20211;-66
2023/08/28 05:07:11;;;;;;;6.57;4.95;;;;;;;;;;4995096;28;20215;-67
2023/08/28 05:09:36;;;;;;;5.65;4.20;;;;;;;;;;4996114;28;20222;-67
2023/08/28 05:12:01;;;;;;;5.78;4.45;;;;;;;;;;4997250;28;20183;-67
2023/08/28 05:14:27;;;;;;;7.28;5.28;;;;;;;;;;4996446;28;20245;-67
2023/08/28 05:16:52;;;;;;;6.68;5.80;;;;;;;;;;4995524;28;20179;-66
2023/08/28 05:19:17;;;;;;;8.02;6.10;;;;;;;;;;4996011;28;20693;-67
2023/08/28 05:21:42;;;;;;;9.18;6.95;;;;;;;;;;4998374;28;20202;-67
2023/08/28 05:24:07;;;;;;;9.80;6.25;;;;;;;;;;4997232;28;20249;-66
2023/08/28 05:26:33;;;;;;;8.38;5.72;;;;;;;;;;4993916;28;20195;-66
2023/08/28 05:28:58;;;;;;;7.70;5.93;;;;;;;;;;4993358;28;20214;-66
2023/08/28 05:31:23;;;;;;;11.50;7.05;;;;;;;;;;4998040;28;20564;-66
2023/08/28 05:33:48;;;;;;;8.30;6.22;;;;;;;;;;4998541;28;20203;-66
2023/08/28 05:36:14;;;;;;;9.23;5.72;;;;;;;;;;4997527;28;20249;-66
2023/08/28 05:38:39;;;;;;;7.07;5.53;;;;;;;;;;4995079;28;20199;-67
2023/08/28 05:41:04;;;;;;;10.00;6.15;;;;;;;;;;4995147;28;20976;-66
2023/08/28 05:43:29;;;;;;;7.88;6.22;;;;;;;;;;4996895;28;20214;-66
2023/08/28 05:45:54;;;;;;;8.90;6.10;;;;;;;;;;4997667;28;21029;-67
2023/08/28 05:48:20;;;;;;;10.20;7.38;;;;;;;;;;4996521;28;20750;-67
2023/08/28 05:50:48;;;;;;;9.20;7.20;;;;;;;;;;4995141;28;20190;-67
2023/08/28 05:53:13;;;;;;;8.98;6.40;;;;;;;;;;4996332;28;20704;-67
2023/08/28 05:55:39;;;;;;;11.43;7.57;;;;;;;;;;4998235;28;20190;-67
2023/08/28 05:58:04;;;;;;;8.48;6.65;;;;;;;;;;5000569;28;20195;-67
2023/08/28 06:00:29;;;;;;;12.75;7.10;;;;;;;;;;4997058;28;20187;-67
2023/08/28 06:02:55;;;;;;;9.88;6.95;;;;;;;;;;4998596;28;20218;-67
2023/08/28 06:05:20;;;;;;;9.02;5.85;;;;;;;;;;4999859;28;20237;-67
2023/08/28 06:07:45;;;;;;;9.43;6.55;;;;;;;;;;5000666;28;21028;-67
2023/08/28 06:10:12;;;;;;;8.70;6.43;;;;;;;;;;5000492;28;20223;-67
2023/08/28 06:12:38;;;;;;;9.40;6.97;;;;;;;;;;5001256;28;20187;-67
2023/08/28 06:15:04;;;;;;;9.40;6.50;;;;;;;;;;5000136;28;20230;-67
2023/08/28 06:17:30;;;;;;;8.35;6.75;;;;;;;;;;5001220;28;20179;-66
2023/08/28 06:19:55;;;;;;;9.75;6.82;;;;;;;;;;4996958;28;20183;-66
2023/08/28 06:22:20;;;;;;;8.88;6.10;;;;;;;;;;4998604;28;21756;-68
2023/08/28 06:24:50;;;;;;;7.90;6.10;;;;;;;;;;4999257;28;20214;-67
2023/08/28 06:27:15;;;;;;;6.70;5.80;;;;;;;;;;4999398;28;20194;-67
2023/08/28 06:29:40;;;;;;;7.05;5.57;;;;;;;;;;5000982;28;20718;-67
2023/08/28 06:32:05;;;;;;;8.65;6.15;;;;;;;;;;4999822;28;20213;-66
2023/08/28 06:34:31;;;;;;;9.13;6.38;;;;;;;;;;4999695;28;20233;-66
2023/08/28 06:36:56;;;;;;;7.05;6.35;;;;;;;;;;4998213;28;20186;-68
2023/08/28 06:39:21;;;;;;;5.47;4.97;;;;;;;;;;5000330;28;20320;-66
2023/08/28 06:41:46;;;;;;;7.18;5.68;;;;;;;;;;4996143;28;20199;-66
2023/08/28 06:44:12;;;;;;;5.93;4.85;;;;;;;;;;5000858;28;20221;-66
2023/08/28 06:46:37;;;;;;;5.45;4.75;;;;;;;;;;4999986;28;20229;-66
2023/08/28 06:49:02;;;;;;;7.53;5.20;;;;;;;;;;5000452;28;20238;-68
2023/08/28 06:51:28;;;;;;;6.70;5.18;;;;;;;;;;4999341;28;20680;-66
2023/08/28 06:53:53;;;;;;;7.13;4.93;;;;;;;;;;4995827;28;20241;-67
2023/08/28 06:56:19;;;;;;;8.90;5.05;;;;;;;;;;4995065;28;20187;-67
2023/08/28 06:58:44;;;;;;;5.68;4.82;;;;;;;;;;4993535;28;20187;-67
2023/08/28 07:01:10;;;;;;;6.25;4.50;;;;;;;;;;4994518;28;20190;-67
2023/08/28 07:03:35;;;;;;;8.52;4.50;;;;;;;;;;4996512;28;20257;-66
2023/08/28 07:06:00;;;;;;;6.53;4.00;;;;;;;;;;4995778;28;21108;-66
2023/08/28 07:08:25;;;;;;;4.32;3.90;;;;;;;;;;4998939;28;20207;-67
2023/08/28 07:10:50;;;;;;;4.07;3.33;;;;;;;;;;4998703;28;20189;-66
2023/08/28 07:13:16;;;;;;;4.75;3.08;;;;;;;;;;4998773;28;20309;-68
2023/08/28 07:15:41;;;;;;;3.80;3.30;;;;;;;;;;4997088;28;20190;-67
2023/08/28 07:18:06;;;;;;;4.30;2.70;;;;;;;;;;5000232;28;20218;-67
2023/08/28 07:20:32;;;;;;;3.03;2.40;;;;;;;;;;4996520;28;20432;-67
2023/08/28 07:22:57;;;;;;;2.25;2.05;;;;;;;;;;4999254;28;20210;-67
2023/08/28 07:25:22;;;;;;;2.78;2.30;;;;;;;;;;4997287;28;20232;-67
2023/08/28 07:27:48;;;;;;;3.03;2.20;;;;;;;;;;4999420;28;20191;-66
2023/08/28 07:30:13;;;;;;;3.97;2.42;;;;;;;;;;4999788;28;20254;-66
2023/08/28 07:32:39;;;;;;;4.03;1.67;;;;;;;;;;4998045;28;20183;-66
2023/08/28 07:35:05;;;;;;;1.70;1.60;;;;;;;;;;4994762;28;20190;-66
2023/08/28 07:37:31;;;;;;;1.50;1.13;;;;;;;;;;4997848;28;20939;-66
2023/08/28 07:39:56;;;;;;;4.25;1.85;;;;;;;;;;4999845;28;20218;-66
2023/08/28 07:42:21;;;;;;;1.92;1.75;;;;;;;;;;4994059;28;20692;-66
2023/08/28 07:44:49;;;;;;;2.92;1.73;;;;;;;;;;4999716;28;20203;-66
2023/08/28 07:47:14;;;;;;;3.67;2.05;;;;;;;;;;4998406;28;20229;-67
2023/08/28 07:49:41;;;;;;;2.35;1.52;;;;;;;;;;4999695;28;20206;-66
2023/08/28 07:52:06;;;;;;;1.15;0.88;;;;;;;;;;4997116;28;20179;-66
2023/08/28 07:54:31;;;;;;;1.30;1.00;;;;;;;;;;4998910;28;20199;-66
2023/08/28 07:56:56;;;;;;;2.92;0.75;;;;;;;;;;4998461;28;20240;-66
2023/08/28 07:59:22;;;;;;;1.23;0.80;;;;;;;;;;4999597;28;20183;-66
2023/08/28 08:01:48;;;;;;;1.17;1.05;;;;;;;;;;4997280;28;20191;-65
2023/08/28 08:04:13;;;;;;;0.82;0.73;;;;;;;;;;4998200;28;20991;-66
2023/08/28 08:06:38;;;;;;;1.65;0.90;;;;;;;;;;4996888;28;21051;-66
2023/08/28 08:09:04;;;;;;;1.67;0.73;;;;;;;;;;4997407;28;20301;-66
2023/08/28 08:11:29;;;;;;;1.75;1.02;;;;;;;;;;4997668;28;20190;-66
2023/08/28 08:13:54;;;;;;;0.95;0.85;;;;;;;;;;4998492;28;20226;-66
2023/08/28 08:16:19;;;;;;;0.73;0.73;;;;;;;;;;4998500;28;20187;-66
2023/08/28 08:18:45;;;;;;;1.65;0.90;;;;;;;;;;4998601;28;20182;-66
2023/08/28 08:21:10;;;;;;;2.58;0.93;;;;;;;;;;4994097;28;20190;-65
2023/08/28 08:23:35;;;;;;;1.17;1.00;;;;;;;;;;4997924;28;20199;-66
2023/08/28 08:26:00;;;;;;;0.68;0.60;;;;;;;;;;4999453;28;20183;-66
2023/08/28 08:28:25;;;;;;;2.00;0.68;;;;;;;;;;4998415;28;20516;-66
2023/08/28 08:30:51;;;;;;;2.22;0.60;;;;;;;;;;4997191;28;20241;-66
2023/08/28 08:33:17;;;;;;;1.55;0.50;;;;;;;;;;4998849;28;20217;-65
2023/08/28 08:35:42;;;;;;;1.13;0.55;;;;;;;;;;4999643;28;20178;-65
2023/08/28 08:38:08;;;;;;;3.78;1.00;;;;;;;;;;4997520;28;20273;-65
2023/08/28 08:40:34;;;;;;;2.40;0.52;;;;;;;;;;4998560;28;20175;-65
2023/08/28 08:42:59;;;;;;;1.13;0.82;;;;;;;;;;4998578;28;20214;-66
2023/08/28 08:45:31;;;;;;;1.15;0.88;;;;;;;;;;4998597;28;20688;-67
2023/08/28 08:48:00;;;;;;;4.38;0.60;;;;;;;;;;4998926;28;20564;-66
2023/08/28 08:50:26;;;;;;;1.13;0.38;;;;;;;;;;4994136;28;20270;-67
2023/08/28 08:52:52;;;;;;;2.05;0.50;;;;;;;;;;4998454;28;20700;-66
2023/08/28 08:55:22;;;;;;;2.38;0.80;;;;;;;;;;4998575;28;20187;-66
2023/08/28 08:57:52;;;;;;;2.70;0.80;;;;;;;;;;4997959;28;20179;-66
2023/08/28 09:00:18;;;;;;;0.73;0.73;;;;;;;;;;4996575;28;20260;-66
2023/08/28 09:02:43;;;;;;;1.92;0.82;;;;;;;;;;4998577;28;20183;-67
2023/08/28 09:05:09;;;;;;;1.00;0.80;;;;;;;;;;4997585;28;20250;-66
2023/08/28 09:07:35;;;;;;;3.08;0.80;;;;;;;;;;4996086;28;20214;-66
2023/08/28 09:10:02;;;;;;;2.25;0.60;;;;;;;;;;4998875;28;20264;-65
2023/08/28 09:12:27;;;;;;;1.05;0.60;;;;;;;;;;4998199;28;20179;-66
2023/08/28 09:14:52;;;;;;;1.53;1.00;;;;;;;;;;4997295;28;20246;-66
2023/08/28 09:17:18;;;;;;;1.65;0.95;;;;;;;;;;4997410;28;20431;-66
2023/08/28 09:19:47;;;;;;;1.25;0.77;;;;;;;;;;4998285;28;20182;-67
2023/08/28 09:22:12;;;;;;;2.08;1.58;;;;;;;;;;4996753;28;20393;-66
2023/08/28 09:24:38;;;;;;;1.57;1.40;;;;;;;;;;4998197;28;20206;-65
2023/08/28 09:27:03;;;;;;;3.07;1.10;;;;;;;;;;4997088;28;20436;-65
2023/08/28 09:29:28;;;;;;;1.25;1.15;;;;;;;;;;4997219;28;20474;-67
2023/08/28 09:32:00;;;;;;;1.02;0.80;;;;;;;;;;4998378;28;20273;-67
2023/08/28 09:34:34;;;;;;;0.82;0.80;;;;;;;;;;5002464;28;20203;-66
2023/08/28 09:37:00;;;;;;;1.38;0.85;;;;;;;;;;5001545;28;20194;-67
2023/08/28 09:39:25;;;;;;;1.13;1.00;;;;;;;;;;5002529;28;20653;-66
2023/08/28 09:41:50;;;;;;;2.30;0.97;;;;;;;;;;5002563;28;20352;-67
2023/08/28 09:44:16;;;;;;;2.65;0.80;;;;;;;;;;5000665;28;20436;-66
2023/08/28 09:46:42;;;;;;;1.92;0.90;;;;;;;;;;5000308;28;20294;-67
2023/08/28 09:49:08;;;;;;;2.67;0.85;;;;;;;;;;5001755;28;20676;-66
2023/08/28 09:51:39;;;;;;;2.28;0.73;;;;;;;;;;5002284;28;20743;-66
2023/08/28 09:54:04;;;;;;;0.68;0.55;;;;;;;;;;5001977;28;20735;-66
2023/08/28 09:56:30;;;;;;;1.95;1.17;;;;;;;;;;5001082;28;20269;-66
2023/08/28 09:58:56;;;;;;;2.90;1.40;;;;;;;;;;5001739;28;20179;-67
2023/08/28 10:01:22;;;;;;;1.13;0.90;;;;;;;;;;5001733;28;20206;-66
2023/08/28 10:03:47;;;;;;;6.45;1.83;;;;;;;;;;5001742;28;20203;-66
2023/08/28 10:06:12;;;;;;;2.05;1.00;;;;;;;;;;4998531;28;20187;-67
2023/08/28 10:08:38;;;;;;;1.40;1.30;;;;;;;;;;4997346;28;20268;-67
2023/08/28 10:11:04;;;;;;;4.28;1.00;;;;;;;;;;5000973;28;20187;-66
2023/08/28 10:13:30;;;;;;;1.58;1.45;;;;;;;;;;5000101;28;20289;-65
2023/08/28 10:16:03;;;;;;;1.20;1.10;;;;;;;;;;5001268;28;20241;-66
2023/08/28 10:18:34;;;;;;;1.27;1.00;;;;;;;;;;4999301;28;20218;-67
2023/08/28 10:21:00;;;;;;;1.65;0.70;;;;;;;;;;5000645;28;20186;-66
2023/08/28 10:23:25;;;;;;;1.13;0.70;;;;;;;;;;4999131;28;20218;-67
2023/08/28 10:25:53;;;;;;;1.77;1.05;;;;;;;;;;5001133;28;20564;-66
2023/08/28 10:28:19;;;;;;;1.30;0.77;;;;;;;;;;4998311;28;20215;-66
2023/08/28 10:30:45;;;;;;;1.58;1.10;;;;;;;;;;4999816;28;20183;-66
2023/08/28 10:33:12;;;;;;;2.10;0.65;;;;;;;;;;4999763;28;20242;-66
2023/08/28 10:35:38;;;;;;;0.90;0.60;;;;;;;;;;4999372;28;20191;-67
2023/08/28 10:38:04;;;;;;;1.17;0.80;;;;;;;;;;4998510;28;20269;-66
2023/08/28 10:40:30;;;;;;;1.17;0.70;;;;;;;;;;5000009;28;20197;-66
2023/08/28 10:42:55;;;;;;;1.33;0.55;;;;;;;;;;5000602;28;20213;-66
2023/08/28 10:45:21;;;;;;;1.67;0.77;;;;;;;;;;5000243;28;20182;-65
2023/08/28 10:47:49;;;;;;;0.98;0.50;;;;;;;;;;5000237;28;21000;-67
2023/08/28 10:50:14;;;;;;;1.55;0.90;;;;;;;;;;5000615;28;20187;-67
2023/08/28 10:52:40;;;;;;;2.75;1.38;;;;;;;;;;5000995;28;20194;-66
2023/08/28 10:55:06;;;;;;;2.53;0.80;;;;;;;;;;4996797;28;20190;-66
2023/08/28 10:57:31;;;;;;;2.30;1.20;;;;;;;;;;5000097;28;20463;-67
2023/08/28 11:00:01;;;;;;;1.13;0.98;;;;;;;;;;5000452;28;20298;-66
2023/08/28 11:02:46;;;;;;;2.10;1.30;;;;;;;;;;5000488;28;20175;-67
2023/08/28 11:05:13;;;;;;;1.38;1.27;;;;;;;;;;4998100;28;20195;-66
2023/08/28 11:07:42;;;;;;;2.55;1.02;;;;;;;;;;4999754;28;20183;-66
2023/08/28 11:10:18;;;;;;;1.98;0.80;;;;;;;;;;5001035;28;20187;-66
2023/08/28 11:12:53;;;;;;;2.47;1.15;;;;;;;;;;5000439;28;20578;-67
2023/08/28 11:15:26;;;;;;;1.85;1.00;;;;;;;;;;4999337;28;20653;-67
2023/08/28 11:18:12;;;;;;;1.00;0.73;;;;;;;;;;4999901;28;20211;-66
2023/08/28 11:20:37;;;;;;;1.83;0.80;;;;;;;;;;4996693;28;21134;-67
2023/08/28 11:23:03;;;;;;;0.68;0.68;;;;;;;;;;4996438;28;21106;-67
2023/08/28 11:25:39;;;;;;;2.33;0.98;;;;;;;;;;4999850;28;20175;-66
2023/08/28 11:28:22;;;;;;;0.80;0.45;;;;;;;;;;4999149;28;20687;-66
2023/08/28 11:30:48;;;;;;;1.60;0.60;;;;;;;;;;4998680;28;20187;-67
2023/08/28 11:33:13;;;;;;;1.58;0.90;;;;;;;;;;4999525;28;20203;-67
2023/08/28 11:35:38;;;;;;;1.45;0.90;;;;;;;;;;5000719;28;20179;-67
2023/08/28 11:38:03;;;;;;;1.63;1.20;;;;;;;;;;4998747;28;20214;-67
2023/08/28 11:40:29;;;;;;;1.57;1.23;;;;;;;;;;4999766;28;21047;-66
2023/08/28 11:43:03;;;;;;;1.60;1.35;;;;;;;;;;4999268;28;20420;-66
2023/08/28 11:45:28;;;;;;;3.85;1.50;;;;;;;;;;5000376;28;20186;-66
2023/08/28 11:47:53;;;;;;;2.85;1.60;;;;;;;;;;4998285;28;20179;-66
2023/08/28 11:50:19;;;;;;;2.50;2.28;;;;;;;;;;4999945;28;21387;-66
2023/08/28 11:52:50;;;;;;;3.13;2.70;;;;;;;;;;4999881;28;20183;-66
2023/08/28 11:55:15;;;;;;;2.40;2.20;;;;;;;;;;4999415;28;20190;-66
2023/08/28 11:57:42;;;;;;;2.42;2.22;;;;;;;;;;4998528;28;20653;-66
2023/08/28 12:00:11;;;;;;;3.25;2.03;;;;;;;;;;4999332;28;20219;-66
2023/08/28 12:02:38;;;;;;;1.98;1.88;;;;;;;;;;4998259;28;20203;-67
2023/08/28 12:05:04;;;;;;;3.83;2.53;;;;;;;;;;4998935;28;20205;-67
2023/08/28 12:07:29;;;;;;;2.97;2.55;;;;;;;;;;4997437;28;20216;-65
2023/08/28 12:09:55;;;;;;;3.88;2.25;;;;;;;;;;4998477;28;20191;-67
2023/08/28 12:12:20;;;;;;;2.15;1.80;;;;;;;;;;4996363;28;20307;-66
2023/08/28 12:14:46;;;;;;;5.32;2.60;;;;;;;;;;5021964;22;20246;-69
2023/08/28 12:17:15;;;;;;;3.03;1.92;;;;;;;;;;5017994;28;20217;-69
2023/08/28 12:19:41;;;;;;;1.20;1.10;;;;;;;;;;5016288;28;20700;-69
2023/08/28 12:22:07;;;;;;;2.40;1.45;;;;;;;;;;5019023;28;20189;-69
2023/08/28 12:24:32;;;;;;;1.65;1.48;;;;;;;;;;5003871;28;20202;-69
2023/08/28 12:26:58;;;;;;;2.05;1.88;;;;;;;;;;4999497;28;20210;-68
2023/08/28 12:29:24;;;;;;;2.08;1.90;;;;;;;;;;4997337;28;20187;-69
2023/08/28 12:31:49;;;;;;;3.42;1.85;;;;;;;;;;4996908;28;20193;-69
2023/08/28 12:34:14;;;;;;;3.63;1.77;;;;;;;;;;4998494;28;20222;-69
2023/08/28 12:36:43;;;;;;;1.40;1.30;;;;;;;;;;4998825;28;20206;-70
2023/08/28 12:39:12;;;;;;;2.40;1.90;;;;;;;;;;4998564;28;20580;-68
2023/08/28 12:41:48;;;;;;;1.00;0.93;;;;;;;;;;4998258;28;21460;-69
2023/08/28 12:44:13;;;;;;;1.02;0.90;;;;;;;;;;4998911;28;20272;-68
2023/08/28 12:46:38;;;;;;;2.65;1.15;;;;;;;;;;4998703;28;20595;-68
2023/08/28 12:49:04;;;;;;;2.30;0.80;;;;;;;;;;4997282;28;20202;-71
2023/08/28 12:51:29;;;;;;;2.10;1.30;;;;;;;;;;4998336;28;20431;-70
2023/08/28 12:53:54;;;;;;;1.53;1.13;;;;;;;;;;4998710;28;20818;-69
2023/08/28 12:56:19;;;;;;;1.25;1.08;;;;;;;;;;4998462;28;20435;-70
2023/08/28 12:58:44;;;;;;;1.90;0.97;;;;;;;;;;4997889;28;20591;-70
2023/08/28 13:01:10;;;;;;;0.98;0.70;;;;;;;;;;4991921;28;21074;-69
2023/08/28 13:03:35;;;;;;;1.73;0.77;;;;;;;;;;4995463;28;20553;-69
2023/08/28 13:06:01;;;;;;;1.15;0.70;;;;;;;;;;4997275;28;20444;-70
2023/08/28 13:08:27;;;;;;;1.27;0.60;;;;;;;;;;4996444;28;20332;-70
2023/08/28 13:10:52;;;;;;;1.42;0.90;;;;;;;;;;4998664;28;20190;-70
2023/08/28 13:13:18;;;;;;;2.42;0.88;;;;;;;;;;4997881;28;21000;-70
2023/08/28 13:15:43;;;;;;;1.23;0.80;;;;;;;;;;4998343;28;20191;-70
2023/08/28 13:18:08;;;;;;;0.68;0.60;;;;;;;;;;4998663;28;20276;-70
2023/08/28 13:20:34;;;;;;;2.17;0.97;;;;;;;;;;4994117;28;21102;-70
2023/08/28 13:22:59;;;;;;;2.40;1.00;;;;;;;;;;4997326;28;20429;-70
2023/08/28 13:25:24;;;;;;;1.67;0.80;;;;;;;;;;4997846;28;20241;-70
2023/08/28 13:27:49;;;;;;;1.27;0.85;;;;;;;;;;4998609;28;20210;-69
2023/08/28 13:30:15;;;;;;;3.58;1.10;;;;;;;;;;4998557;28;20183;-70
2023/08/28 13:32:40;;;;;;;2.85;0.93;;;;;;;;;;4997557;28;20199;-69
2023/08/28 13:35:05;;;;;;;1.80;0.90;;;;;;;;;;4996758;28;20206;-69
2023/08/28 13:37:30;;;;;;;3.25;0.95;;;;;;;;;;4992366;28;20429;-69
2023/08/28 13:39:56;;;;;;;2.58;1.23;;;;;;;;;;4997995;28;20218;-69
2023/08/28 13:42:22;;;;;;;3.78;1.35;;;;;;;;;;4998774;28;20179;-69
2023/08/28 13:44:47;;;;;;;2.00;1.45;;;;;;;;;;4998936;28;20203;-69
2023/08/28 13:47:12;;;;;;;2.20;1.00;;;;;;;;;;4996880;28;21049;-69
2023/08/28 13:49:37;;;;;;;1.85;1.15;;;;;;;;;;4997219;28;20202;-70
2023/08/28 13:52:03;;;;;;;1.08;0.70;;;;;;;;;;4997077;28;20191;-68
2023/08/28 13:54:28;;;;;;;2.20;0.90;;;;;;;;;;4995250;28;20302;-68
2023/08/28 13:56:54;;;;;;;1.27;0.80;;;;;;;;;;4996113;28;20214;-69
2023/08/28 13:59:19;;;;;;;3.13;0.65;;;;;;;;;;4997419;28;20948;-69
2023/08/28 14:01:44;;;;;;;1.30;0.75;;;;;;;;;;4998190;28;20175;-69
2023/08/28 14:04:10;;;;;;;0.95;0.68;;;;;;;;;;4997651;28;20290;-70
2023/08/28 14:06:35;;;;;;;0.63;0.50;;;;;;;;;;4994061;28;20190;-68
2023/08/28 14:09:00;;;;;;;2.78;0.57;;;;;;;;;;4997759;28;20235;-70
2023/08/28 14:11:26;;;;;;;1.23;0.60;;;;;;;;;;4998113;28;20677;-69
2023/08/28 14:13:51;;;;;;;1.48;0.70;;;;;;;;;;4993144;28;20224;-70
2023/08/28 14:16:16;;;;;;;1.00;0.90;;;;;;;;;;4994894;28;20190;-69
2023/08/28 14:18:41;;;;;;;0.77;0.68;;;;;;;;;;4998924;28;20242;-69
2023/08/28 14:21:07;;;;;;;1.23;0.93;;;;;;;;;;4999484;28;20175;-69
2023/08/28 14:23:33;;;;;;;2.13;1.10;;;;;;;;;;5000678;28;20420;-69
2023/08/28 14:26:02;;;;;;;1.67;0.70;;;;;;;;;;5000537;28;20229;-70
2023/08/28 14:28:28;;;;;;;1.15;0.60;;;;;;;;;;5000521;28;20642;-70
2023/08/28 14:30:53;;;;;;;0.50;0.50;;;;;;;;;;4998848;28;20372;-70
2023/08/28 14:33:19;;;;;;;2.60;0.90;;;;;;;;;;5000970;28;20198;-70
2023/08/28 14:35:44;;;;;;;2.90;0.60;;;;;;;;;;5000470;28;20190;-69